Virginia — WCW4062 — position and weather

sailwx.info

Track history (hours):
 
Tides and Currents Weather Stations Pressure Air Temp Water Temp Dewpoint Dewpoint Depression Visibility Wind Speed Wind Dir Waves Ship Positions

Virginia

Owner: WEEKS MARINE, INC., CRANFORD, NJ. More information available from US FCC via Universal Licensing System and Coast Guard Vessel Documentation Center.

Last reported at 2016-Sep-23 09:33 UTC. Time now 2016-Sep-27 22:21 UTC.
Position N 25°34' W 080°04'.

MMSI: 366939110.

Date/timePositionNaut miles runAvg speedWind from/ knotsBaromVisibWave heightAir tempDewpointWater temp
2016-Sep-23 09:33N 25°34' W 080°04'17 5.6
2016-Sep-23 06:33N 25°51' W 080°04'11 5.7
2016-Sep-23 04:33N 26°02' W 080°03'7 7.2
2016-Sep-23 03:33N 26°09' W 080°02'8 8.0
2016-Sep-23 02:33N 26°17' W 080°02'8 7.8
2016-Sep-23 01:33N 26°25' W 080°01'8 7.7
2016-Sep-23 00:34N 26°33' W 080°00'333 7.7
2016-Sep-21 05:33N 32°02' W 080°55'10 4.9
2016-Sep-21 03:33N 32°05' W 081°06'0 0.0
2016-Sep-21 02:33N 32°05' W 081°06'15 1.7
2016-Sep-20 17:25N 32°09' W 080°49'0 0.0
2016-Sep-20 14:34N 32°09' W 080°49'0 0.0
2016-Sep-20 13:34N 32°09' W 080°49'1 0.5
2016-Sep-20 10:33N 32°08' W 080°49'1 0.6
2016-Sep-20 08:34N 32°09' W 080°49'0 0.0
2016-Sep-20 07:34N 32°09' W 080°49'0 0.0
2016-Sep-20 06:34N 32°09' W 080°49'0 0.0
2016-Sep-20 02:34N 32°09' W 080°49'0 0.0
2016-Sep-19 23:33N 32°09' W 080°49'0 0.0
2016-Sep-19 19:30N 32°09' W 080°49'3 3.2
2016-Sep-19 18:34N 32°06' W 080°49'2 1.1
2016-Sep-19 16:34N 32°06' W 080°46'0 0.0
2016-Sep-19 14:34N 32°06' W 080°46'0 0.0
2016-Sep-19 13:34N 32°06' W 080°46'2 2.1
2016-Sep-19 12:33N 32°06' W 080°49'3 2.9
2016-Sep-19 11:34N 32°09' W 080°49'0 0.0
2016-Sep-19 09:33N 32°09' W 080°49'0 0.0
2016-Sep-19 07:34N 32°09' W 080°49'0 0.0
2016-Sep-19 06:34N 32°09' W 080°49'0 0.0
2016-Sep-19 03:34N 32°09' W 080°49'0 0.0
2016-Sep-19 02:34N 32°09' W 080°49'0 0.0
2016-Sep-19 00:34N 32°09' W 080°49'0 0.0
2016-Sep-18 19:34N 32°09' W 080°49'0 0.0
2016-Sep-18 15:33N 32°09' W 080°49'0 0.0
2016-Sep-18 14:34N 32°09' W 080°49'0 0.0
2016-Sep-18 10:34N 32°09' W 080°49'0 0.0
2016-Sep-18 09:33N 32°09' W 080°49'0 0.0
2016-Sep-18 02:34N 32°09' W 080°49'0 0.0
2016-Sep-18 01:34N 32°09' W 080°49'0 0.0
2016-Sep-18 00:34N 32°09' W 080°49'0 0.0
2016-Sep-17 22:34N 32°09' W 080°49'0 0.0
2016-Sep-17 21:34N 32°09' W 080°49'0 0.0
2016-Sep-17 20:34N 32°09' W 080°49'0 0.0
2016-Sep-17 19:16N 32°09' W 080°49'0 0.0
2016-Sep-17 13:34N 32°09' W 080°49'0 0.0
2016-Sep-17 12:34N 32°09' W 080°49'0 0.0
2016-Sep-17 10:34N 32°09' W 080°49'0 0.0
2016-Sep-17 09:33N 32°09' W 080°49'0 0.0
2016-Sep-17 08:34N 32°09' W 080°49'0 0.0
2016-Sep-17 07:34N 32°09' W 080°49'0 0.0
2016-Sep-17 05:33N 32°09' W 080°49'0 0.0
2016-Sep-17 04:34N 32°09' W 080°49'0 0.0
2016-Sep-17 00:33N 32°09' W 080°49'0 0.0
2016-Sep-16 17:31N 32°09' W 080°49'0 0.0
2016-Sep-16 15:33N 32°09' W 080°49'0 0.0
2016-Sep-16 12:34N 32°09' W 080°49'0 0.0
2016-Sep-16 09:34N 32°09' W 080°49'0 0.0
2016-Sep-16 07:34N 32°09' W 080°49'0 0.0
2016-Sep-16 03:33N 32°09' W 080°49'0 0.0
2016-Sep-16 02:33N 32°09' W 080°49'0 0.0
2016-Sep-16 00:33N 32°09' W 080°49'0 0.0
2016-Sep-15 22:33N 32°09' W 080°49'0 0.0
2016-Sep-15 21:26N 32°09' W 080°49'0 0.0
2016-Sep-15 20:33N 32°09' W 080°49'0 0.0
2016-Sep-15 18:34N 32°09' W 080°49'0 0.0
2016-Sep-15 12:33N 32°09' W 080°49'0 0.0
2016-Sep-15 11:34N 32°09' W 080°49'0 0.0
2016-Sep-15 01:33N 32°09' W 080°49'0 0.0
2016-Sep-14 22:33N 32°09' W 080°49'0 0.0
2016-Sep-14 21:33N 32°09' W 080°49'0 0.0
2016-Sep-14 17:30N 32°09' W 080°49'0 0.0
2016-Sep-14 16:33N 32°09' W 080°49'0 0.0
2016-Sep-14 13:25N 32°09' W 080°49'0 0.0
2016-Sep-14 12:33N 32°09' W 080°49'1 0.3
2016-Sep-14 10:33N 32°10' W 080°48'4 0.2
2016-Sep-13 16:10N 32°14' W 080°47'18 3.9
2016-Sep-13 11:33N 32°05' W 081°06'0 0.0
2016-Sep-13 09:33N 32°05' W 081°06'  
Track history (hours):
 
Tides and Currents Weather Stations Pressure Air Temp Water Temp Dewpoint Dewpoint Depression Visibility Wind Speed Wind Dir Waves Ship Positions

Virginia

Owner: WEEKS MARINE, INC., CRANFORD, NJ. More information available from US FCC via Universal Licensing System and Coast Guard Vessel Documentation Center.

Last reported at 2016-Sep-23 09:33 UTC. Time now 2016-Sep-27 22:21 UTC.
Position N 25°34' W 080°04'.

MMSI: 366939110.

Date/timePositionNaut miles runAvg speedWind from/ knotsBaromVisibWave heightAir tempDewpointWater temp
2016-Sep-23 09:33N 25°34' W 080°04'17 5.6
2016-Sep-23 06:33N 25°51' W 080°04'11 5.7
2016-Sep-23 04:33N 26°02' W 080°03'7 7.2
2016-Sep-23 03:33N 26°09' W 080°02'8 8.0
2016-Sep-23 02:33N 26°17' W 080°02'8 7.8
2016-Sep-23 01:33N 26°25' W 080°01'8 7.7
2016-Sep-23 00:34N 26°33' W 080°00'333 7.7
2016-Sep-21 05:33N 32°02' W 080°55'10 4.9
2016-Sep-21 03:33N 32°05' W 081°06'0 0.0
2016-Sep-21 02:33N 32°05' W 081°06'15 1.7
2016-Sep-20 17:25N 32°09' W 080°49'0 0.0
2016-Sep-20 14:34N 32°09' W 080°49'0 0.0
2016-Sep-20 13:34N 32°09' W 080°49'1 0.5
2016-Sep-20 10:33N 32°08' W 080°49'1 0.6
2016-Sep-20 08:34N 32°09' W 080°49'0 0.0
2016-Sep-20 07:34N 32°09' W 080°49'0 0.0
2016-Sep-20 06:34N 32°09' W 080°49'0 0.0
2016-Sep-20 02:34N 32°09' W 080°49'0 0.0
2016-Sep-19 23:33N 32°09' W 080°49'0 0.0
2016-Sep-19 19:30N 32°09' W 080°49'3 3.2
2016-Sep-19 18:34N 32°06' W 080°49'2 1.1
2016-Sep-19 16:34N 32°06' W 080°46'0 0.0
2016-Sep-19 14:34N 32°06' W 080°46'0 0.0
2016-Sep-19 13:34N 32°06' W 080°46'2 2.1
2016-Sep-19 12:33N 32°06' W 080°49'3 2.9
2016-Sep-19 11:34N 32°09' W 080°49'0 0.0
2016-Sep-19 09:33N 32°09' W 080°49'0 0.0
2016-Sep-19 07:34N 32°09' W 080°49'0 0.0
2016-Sep-19 06:34N 32°09' W 080°49'0 0.0
2016-Sep-19 03:34N 32°09' W 080°49'0 0.0
2016-Sep-19 02:34N 32°09' W 080°49'0 0.0
2016-Sep-19 00:34N 32°09' W 080°49'0 0.0
2016-Sep-18 19:34N 32°09' W 080°49'0 0.0
2016-Sep-18 15:33N 32°09' W 080°49'0 0.0
2016-Sep-18 14:34N 32°09' W 080°49'0 0.0
2016-Sep-18 10:34N 32°09' W 080°49'0 0.0
2016-Sep-18 09:33N 32°09' W 080°49'0 0.0
2016-Sep-18 02:34N 32°09' W 080°49'0 0.0
2016-Sep-18 01:34N 32°09' W 080°49'0 0.0
2016-Sep-18 00:34N 32°09' W 080°49'0 0.0
2016-Sep-17 22:34N 32°09' W 080°49'0 0.0
2016-Sep-17 21:34N 32°09' W 080°49'0 0.0
2016-Sep-17 20:34N 32°09' W 080°49'0 0.0
2016-Sep-17 19:16N 32°09' W 080°49'0 0.0
2016-Sep-17 13:34N 32°09' W 080°49'0 0.0
2016-Sep-17 12:34N 32°09' W 080°49'0 0.0
2016-Sep-17 10:34N 32°09' W 080°49'0 0.0
2016-Sep-17 09:33N 32°09' W 080°49'0 0.0
2016-Sep-17 08:34N 32°09' W 080°49'0 0.0
2016-Sep-17 07:34N 32°09' W 080°49'0 0.0
2016-Sep-17 05:33N 32°09' W 080°49'0 0.0
2016-Sep-17 04:34N 32°09' W 080°49'0 0.0
2016-Sep-17 00:33N 32°09' W 080°49'0 0.0
2016-Sep-16 17:31N 32°09' W 080°49'0 0.0
2016-Sep-16 15:33N 32°09' W 080°49'0 0.0
2016-Sep-16 12:34N 32°09' W 080°49'0 0.0
2016-Sep-16 09:34N 32°09' W 080°49'0 0.0
2016-Sep-16 07:34N 32°09' W 080°49'0 0.0
2016-Sep-16 03:33N 32°09' W 080°49'0 0.0
2016-Sep-16 02:33N 32°09' W 080°49'0 0.0
2016-Sep-16 00:33N 32°09' W 080°49'0 0.0
2016-Sep-15 22:33N 32°09' W 080°49'0 0.0
2016-Sep-15 21:26N 32°09' W 080°49'0 0.0
2016-Sep-15 20:33N 32°09' W 080°49'0 0.0
2016-Sep-15 18:34N 32°09' W 080°49'0 0.0
2016-Sep-15 12:33N 32°09' W 080°49'0 0.0
2016-Sep-15 11:34N 32°09' W 080°49'0 0.0
2016-Sep-15 01:33N 32°09' W 080°49'0 0.0
2016-Sep-14 22:33N 32°09' W 080°49'0 0.0
2016-Sep-14 21:33N 32°09' W 080°49'0 0.0
2016-Sep-14 17:30N 32°09' W 080°49'0 0.0
2016-Sep-14 16:33N 32°09' W 080°49'0 0.0
2016-Sep-14 13:25N 32°09' W 080°49'0 0.0
2016-Sep-14 12:33N 32°09' W 080°49'1 0.3
2016-Sep-14 10:33N 32°10' W 080°48'4 0.2
2016-Sep-13 16:10N 32°14' W 080°47'18 3.9
2016-Sep-13 11:33N 32°05' W 081°06'0 0.0
2016-Sep-13 09:33N 32°05' W 081°06'  

Dump ship's entire track history